Villas de Cupey, Puerto Rico
Current Conditions -  °F | °C
As of 9:56 AM on Sunday 23 Nov 2014 (Local Time) from TJSJ Reporting Station
Broken Clouds Broken Clouds  
Wind Chill: 84°   Ceiling: 5000
Heat Index: 93°   Visibility: 10mi
Dew Point: 76°   Wind: 18mph
Humidity: 76%   Direction: 70°ENE
Pressure: 30.04"   Gusts: 25mph
Location:  18.3754°N, 66.0577°W
Report Text: TJSJ 231356Z 07016G22KT 10SM FEW021 SCT037 BKN050 29/24 A3004 RMK AO2 RAB1258E12 SLP172 VCSH N-NE P0001 T02890244 $
Loading
Personal Weather Stations






























Interactive Weather Map New forecast layout! Learn more

10-Day Weather Forecast

Advertisements
Track Severe Weather on mobile